Time;durP1;ratioP1;P1;durP2;ratioP2;P2;SDS_P1;SDS_P2;PMS_P1;PMS_P2;Temp;Humidity;BMP_temperature;BMP_pressure;BME280_temperature;BME280_humidity;BME280_pressure;Samples;Min_cycle;Max_cycle;Signal;HPM_P1;HPM_P2
2020/12/17 00:00:10;;;;;;;13.82;9.98;;;;;;;;;;4993346;28;20497;-79
2020/12/17 00:02:36;;;;;;;12.68;8.40;;;;;;;;;;4994032;28;20034;-79
2020/12/17 00:05:02;;;;;;;12.73;9.45;;;;;;;;;;4996556;28;20032;-79
2020/12/17 00:07:28;;;;;;;11.00;8.63;;;;;;;;;;5012801;28;20026;-79
2020/12/17 00:09:54;;;;;;;11.50;8.60;;;;;;;;;;5012640;28;20049;-78
2020/12/17 00:12:20;;;;;;;15.40;9.70;;;;;;;;;;4996279;28;20067;-77
2020/12/17 00:14:46;;;;;;;12.10;8.57;;;;;;;;;;4992144;28;20061;-78
2020/12/17 00:17:12;;;;;;;12.98;9.57;;;;;;;;;;4991073;28;20064;-77
2020/12/17 00:19:38;;;;;;;12.50;8.48;;;;;;;;;;4991248;28;20022;-78
2020/12/17 00:22:04;;;;;;;12.40;8.75;;;;;;;;;;4991509;28;20406;-78
2020/12/17 00:24:30;;;;;;;12.90;9.45;;;;;;;;;;4991962;28;20038;-77
2020/12/17 00:26:56;;;;;;;13.43;9.57;;;;;;;;;;4991136;28;20037;-78
2020/12/17 00:29:22;;;;;;;11.85;8.68;;;;;;;;;;4992467;28;20411;-78
2020/12/17 00:31:51;;;;;;;11.75;8.05;;;;;;;;;;4992498;28;20062;-78
2020/12/17 00:34:18;;;;;;;9.65;7.07;;;;;;;;;;4992183;28;20030;-79
2020/12/17 00:36:44;;;;;;;9.77;6.97;;;;;;;;;;4993052;28;20100;-79
2020/12/17 00:39:10;;;;;;;10.65;8.25;;;;;;;;;;4993448;28;20516;-78
2020/12/17 00:41:36;;;;;;;10.13;7.55;;;;;;;;;;4992912;28;20038;-79
2020/12/17 00:44:02;;;;;;;10.82;7.90;;;;;;;;;;4993712;28;20026;-79
2020/12/17 00:46:29;;;;;;;10.27;7.85;;;;;;;;;;4993441;28;20531;-79
2020/12/17 00:48:55;;;;;;;12.13;8.47;;;5.30;99.90;;;;;;4993428;28;20076;-78
2020/12/17 00:51:21;;;;;;;12.15;8.60;;;4.50;99.90;;;;;;4992205;28;20030;-78
2020/12/17 00:53:46;;;;;;;10.02;7.90;;;4.50;99.90;;;;;;4992294;28;20026;-78
2020/12/17 00:56:12;;;;;;;12.13;8.73;;;4.40;99.90;;;;;;4990594;28;20125;-79
2020/12/17 00:58:38;;;;;;;11.82;7.85;;;4.30;99.90;;;;;;4991844;28;20022;-78
2020/12/17 01:01:08;;;;;;;11.70;8.40;;;4.10;99.90;;;;;;4990624;28;20524;-78
2020/12/17 01:03:34;;;;;;;12.02;9.05;;;4.40;99.90;;;;;;4991769;28;20054;-77
2020/12/17 01:06:00;;;;;;;13.27;8.38;;;4.30;99.90;;;;;;4990167;28;20113;-78
2020/12/17 01:08:27;;;;;;;12.10;8.93;;;4.30;99.90;;;;;;4990706;28;20420;-78
2020/12/17 01:10:52;;;;;;;13.77;9.00;;;4.30;99.90;;;;;;4990644;28;20026;-78
2020/12/17 01:13:19;;;;;;;12.38;8.77;;;4.30;99.90;;;;;;4991734;28;20034;-77
2020/12/17 01:15:45;;;;;;;14.13;9.63;;;4.20;99.90;;;;;;4989953;28;20034;-79
2020/12/17 01:18:11;;;;;;;13.85;9.20;;;4.30;99.90;;;;;;4990528;28;20030;-78
2020/12/17 01:20:37;;;;;;;11.38;8.02;;;4.30;99.90;;;;;;4990133;28;20536;-79
2020/12/17 01:23:02;;;;;;;10.13;7.57;;;4.50;99.90;;;;;;4989750;28;20022;-78
2020/12/17 01:25:28;;;;;;;10.63;7.60;;;4.50;99.90;;;;;;4991150;28;20370;-78
2020/12/17 01:27:53;;;;;;;10.30;7.90;;;4.50;99.90;;;;;;4990093;28;20117;-77
2020/12/17 01:30:19;;;;;;;11.13;8.32;;;;;;;;;;4989802;28;20030;-78
2020/12/17 01:32:45;;;;;;;12.90;9.63;;;;;;;;;;4991014;28;20019;-78
2020/12/17 01:35:11;;;;;;;13.23;8.50;;;;;;;;;;4990506;28;20034;-77
2020/12/17 01:37:37;;;;;;;11.65;8.07;;;;;;;;;;4990782;28;20039;-78
2020/12/17 01:40:03;;;;;;;10.80;8.18;;;4.30;99.90;;;;;;4990145;28;20030;-78
2020/12/17 01:42:29;;;;;;;12.55;7.20;;;;;;;;;;4989380;28;20105;-78
2020/12/17 01:44:55;;;;;;;8.98;6.55;;;;;;;;;;4989430;28;20134;-78
2020/12/17 01:47:21;;;;;;;10.20;6.97;;;;;;;;;;4989722;28;20068;-78
2020/12/17 01:49:47;;;;;;;9.68;6.85;;;;;;;;;;4989598;28;20026;-77
2020/12/17 01:52:13;;;;;;;10.68;7.15;;;;;;;;;;4991220;28;20106;-78
2020/12/17 01:54:39;;;;;;;9.60;7.20;;;;;;;;;;4989042;28;20023;-78
2020/12/17 01:57:06;;;;;;;8.88;6.90;;;;;;;;;;4990213;28;20026;-78
2020/12/17 01:59:43;;;;;;;9.32;7.57;;;;;;;;;;4990853;28;20022;-79
2020/12/17 02:02:09;;;;;;;10.90;7.93;;;;;;;;;;4989528;28;20474;-79
2020/12/17 02:04:35;;;;;;;12.07;8.25;;;;;;;;;;4990409;28;20034;-79
2020/12/17 02:07:01;;;;;;;12.52;9.48;;;;;;;;;;4989791;28;20026;-80
2020/12/17 02:09:27;;;;;;;14.05;10.23;;;;;;;;;;4991613;28;20026;-78
2020/12/17 02:11:58;;;;;;;15.65;10.77;;;;;;;;;;4989953;28;20026;-78
2020/12/17 02:14:25;;;;;;;16.13;10.77;;;;;;;;;;4990044;28;20038;-78
2020/12/17 02:16:51;;;;;;;13.88;10.15;;;;;;;;;;4991519;28;20026;-78
2020/12/17 02:19:17;;;;;;;16.45;9.60;;;;;;;;;;4989419;28;20031;-77
2020/12/17 02:21:44;;;;;;;13.15;10.00;;;;;;;;;;4990358;28;20054;-78
2020/12/17 02:24:10;;;;;;;15.23;9.90;;;;;;;;;;4988649;28;20069;-78
2020/12/17 02:26:36;;;;;;;13.73;9.50;;;;;;;;;;4990972;28;20026;-78
2020/12/17 02:29:03;;;;;;;13.70;9.30;;;;;;;;;;4990413;28;20497;-79
2020/12/17 02:31:29;;;;;;;13.85;9.80;;;;;;;;;;4989930;28;20096;-78
2020/12/17 02:33:55;;;;;;;16.95;12.32;;;;;;;;;;4990965;28;20449;-78
2020/12/17 02:36:21;;;;;;;20.60;12.98;;;;;;;;;;4989286;28;20032;-79
2020/12/17 02:38:47;;;;;;;21.15;12.82;;;;;;;;;;4989810;28;20030;-79
2020/12/17 02:41:13;;;;;;;19.23;12.02;;;;;;;;;;4989651;28;20552;-78
2020/12/17 02:43:40;;;;;;;14.38;10.25;;;;;;;;;;4979549;28;20102;-78
2020/12/17 02:46:06;;;;;;;15.63;11.10;;;;;;;;;;4969825;28;20018;-78
2020/12/17 02:48:32;;;;;;;17.63;11.43;;;;;;;;;;4969688;28;20053;-78
2020/12/17 02:50:58;;;;;;;15.55;11.40;;;;;;;;;;4969854;28;20030;-77
2020/12/17 02:53:24;;;;;;;19.45;12.65;;;;;;;;;;4970910;28;20034;-78
2020/12/17 02:55:50;;;;;;;19.58;12.98;;;;;;;;;;4968307;28;20027;-78
2020/12/17 02:58:16;;;;;;;20.50;13.55;;;;;;;;;;4969520;28;20039;-78
2020/12/17 03:00:42;;;;;;;17.83;12.27;;;;;;;;;;4970504;28;20482;-79
2020/12/17 03:03:08;;;;;;;19.85;13.95;;;4.20;99.90;;;;;;4970513;28;20470;-77
2020/12/17 03:05:34;;;;;;;19.92;13.48;;;;;;;;;;5003114;28;20034;-78
2020/12/17 03:08:00;;;;;;;18.65;13.18;;;;;;;;;;4970631;28;20122;-78
2020/12/17 03:10:27;;;;;;;21.00;14.15;;;;;;;;;;4970491;28;20412;-78
2020/12/17 03:12:53;;;;;;;23.55;14.13;;;;;;;;;;4972115;28;20030;-78
2020/12/17 03:15:19;;;;;;;20.88;14.35;;;;;;;;;;4970353;28;20039;-78
2020/12/17 03:17:45;;;;;;;19.77;13.45;;;;;;;;;;4971843;28;20027;-78
2020/12/17 03:20:12;;;;;;;18.17;12.80;;;;;;;;;;4970520;28;20026;-78
2020/12/17 03:22:38;;;;;;;18.10;12.25;;;;;;;;;;4971925;28;20019;-77
2020/12/17 03:25:05;;;;;;;19.50;12.63;;;;;;;;;;4970210;28;20027;-77
2020/12/17 03:27:32;;;;;;;16.83;11.82;;;;;;;;;;4971936;28;20041;-78
2020/12/17 03:29:58;;;;;;;16.30;11.63;;;;;;;;;;4971834;28;20023;-77
2020/12/17 03:32:24;;;;;;;15.32;11.10;;;;;;;;;;4970570;28;20118;-78
2020/12/17 03:34:50;;;;;;;18.27;11.60;;;;;;;;;;4976355;28;20109;-78
2020/12/17 03:37:16;;;;;;;19.30;13.45;;;;;;;;;;4989938;28;20033;-78
2020/12/17 03:39:42;;;;;;;21.95;14.35;;;;;;;;;;4989614;28;20026;-77
2020/12/17 03:42:08;;;;;;;20.65;14.07;;;;;;;;;;4991077;28;20023;-78
2020/12/17 03:44:34;;;;;;;18.80;13.27;;;;;;;;;;4976678;28;20363;-77
2020/12/17 03:47:00;;;;;;;16.92;11.68;;;;;;;;;;4971646;28;20026;-78
2020/12/17 03:49:26;;;;;;;14.88;10.82;;;;;;;;;;4971431;28;20035;-78
2020/12/17 03:51:52;;;;;;;16.20;11.35;;;;;;;;;;4970684;28;20031;-78
2020/12/17 03:54:19;;;;;;;19.77;12.23;;;;;;;;;;4971236;28;20508;-78
2020/12/17 03:56:45;;;;;;;20.23;12.50;;;;;;;;;;4970399;28;20027;-79
2020/12/17 03:59:11;;;;;;;18.58;12.23;;;;;;;;;;4970280;28;20630;-78
2020/12/17 04:01:37;;;;;;;18.75;12.32;;;;;;;;;;4971446;28;20027;-78
2020/12/17 04:04:03;;;;;;;19.15;12.27;;;;;;;;;;5001229;28;20038;-78
2020/12/17 04:06:29;;;;;;;20.10;12.65;;;;;;;;;;4992857;28;20026;-78
2020/12/17 04:08:55;;;;;;;20.92;13.13;;;;;;;;;;4990553;28;20040;-80
2020/12/17 04:11:21;;;;;;;16.48;11.82;;;;;;;;;;4991431;28;20085;-79
2020/12/17 04:13:47;;;;;;;17.00;11.32;;;;;;;;;;4991318;28;20038;-77
2020/12/17 04:16:13;;;;;;;14.23;9.50;;;;;;;;;;4990489;28;20034;-78
2020/12/17 04:18:39;;;;;;;15.52;10.85;;;;;;;;;;4990779;28;20113;-78
2020/12/17 04:21:04;;;;;;;17.95;10.60;;;;;;;;;;4992434;28;20672;-78
2020/12/17 04:23:31;;;;;;;14.20;10.02;;;;;;;;;;4990742;28;20143;-77
2020/12/17 04:25:59;;;;;;;18.02;11.18;;;;;;;;;;4990445;28;20149;-78
2020/12/17 04:28:25;;;;;;;16.48;10.73;;;;;;;;;;4992498;28;20048;-78
2020/12/17 04:30:51;;;;;;;15.35;10.27;;;;;;;;;;4990716;28;20038;-77
2020/12/17 04:33:17;;;;;;;18.23;11.32;;;;;;;;;;4991923;28;20088;-78
2020/12/17 04:35:43;;;;;;;15.40;10.05;;;;;;;;;;4989953;28;20434;-78
2020/12/17 04:38:09;;;;;;;16.92;11.38;;;;;;;;;;4990440;28;20154;-78
2020/12/17 04:40:35;;;;;;;16.08;11.40;;;;;;;;;;4991814;28;20612;-77
2020/12/17 04:43:02;;;;;;;14.55;9.82;;;;;;;;;;4990117;28;20065;-77
2020/12/17 04:45:28;;;;;;;14.43;10.13;;;4.30;99.90;;;;;;4989864;28;20030;-78
2020/12/17 04:47:55;;;;;;;14.40;9.43;;;;;;;;;;4991939;28;20109;-78
2020/12/17 04:50:22;;;;;;;15.33;9.83;;;;;;;;;;4990692;28;20117;-79
2020/12/17 04:52:48;;;;;;;15.80;10.27;;;;;;;;;;4990472;28;20026;-78
2020/12/17 04:55:14;;;;;;;14.90;10.07;;;;;;;;;;4991370;28;20030;-77
2020/12/17 04:57:45;;;;;;;13.07;9.45;;;;;;;;;;4992155;28;20033;-78
2020/12/17 05:00:11;;;;;;;14.73;9.60;;;;;;;;;;4992252;28;20018;-78
2020/12/17 05:02:37;;;;;;;14.13;9.13;;;;;;;;;;4991587;28;20029;-79
2020/12/17 05:05:04;;;;;;;14.25;9.85;;;;;;;;;;4990105;28;20031;-77
2020/12/17 05:07:30;;;;;;;15.20;9.40;;;;;;;;;;4991275;28;20565;-78
2020/12/17 05:09:56;;;;;;;13.35;9.52;;;;;;;;;;4990582;28;20493;-79
2020/12/17 05:12:22;;;;;;;13.82;9.90;;;;;;;;;;4990663;28;20426;-78
2020/12/17 05:14:49;;;;;;;13.10;9.75;;;;;;;;;;4990343;28;20037;-77
2020/12/17 05:17:15;;;;;;;15.32;9.90;;;;;;;;;;4990455;28;20019;-78
2020/12/17 05:19:42;;;;;;;12.20;9.05;;;;;;;;;;4990337;28;20030;-78
2020/12/17 05:22:11;;;;;;;12.38;8.73;;;;;;;;;;4991653;28;20030;-78
2020/12/17 05:24:37;;;;;;;13.95;9.48;;;;;;;;;;4991130;28;20030;-78
2020/12/17 05:27:04;;;;;;;13.80;9.20;;;;;;;;;;4990495;28;20096;-77
2020/12/17 05:29:30;;;;;;;11.25;8.18;;;;;;;;;;4992066;28;20080;-79
2020/12/17 05:31:56;;;;;;;13.18;9.10;;;;;;;;;;4991252;28;20086;-78
2020/12/17 05:34:22;;;;;;;12.10;8.82;;;;;;;;;;4991179;28;20449;-81
2020/12/17 05:36:48;;;;;;;13.75;9.70;;;;;;;;;;4990375;28;20511;-79
2020/12/17 05:39:16;;;;;;;21.15;12.63;;;;;;;;;;4991482;28;20104;-79
2020/12/17 05:41:43;;;;;;;22.58;13.88;;;;;;;;;;4990027;28;20049;-78
2020/12/17 05:44:09;;;;;;;27.27;17.73;;;;;;;;;;4990750;28;20022;-78
2020/12/17 05:46:36;;;;;;;21.90;14.13;;;4.50;99.90;;;;;;4990975;28;20026;-77
2020/12/17 05:49:22;;;;;;;17.95;12.40;;;3.50;99.90;;;;;;4989433;28;20421;-79
2020/12/17 05:51:48;;;;;;;14.25;9.65;;;3.50;99.90;;;;;;4988849;28;20041;-78
2020/12/17 05:54:26;;;;;;;13.10;9.35;;;3.50;99.90;;;;;;4988241;28;20023;-77
2020/12/17 05:57:08;;;;;;;;;;;3.50;99.90;;;;;;4989009;28;20084;-78
2020/12/17 05:59:34;;;;;;;11.68;7.88;;;3.70;99.90;;;;;;4988742;28;20361;-78
2020/12/17 06:02:19;;;;;;;11.55;8.00;;;3.80;99.90;;;;;;4988752;28;20030;-79
2020/12/17 06:04:59;;;;;;;9.38;6.80;;;3.90;99.90;;;;;;4989396;28;20030;-78
2020/12/17 06:07:52;;;;;;;11.00;6.88;;;3.70;99.90;;;;;;4989730;28;20069;-78
2020/12/17 06:10:24;;;;;;;8.93;6.57;;;3.80;99.90;;;;;;4987385;28;20033;-78
2020/12/17 06:12:52;;;;;;;10.95;7.20;;;3.90;99.90;;;;;;4988386;28;20618;-78
2020/12/17 06:15:24;;;;;;;10.88;7.25;;;3.60;99.90;;;;;;4988044;28;20022;-79
2020/12/17 06:17:54;;;;;;;9.57;6.65;;;3.80;99.90;;;;;;4987870;28;20504;-77
2020/12/17 06:20:22;;;;;;;8.68;6.60;;;3.80;99.90;;;;;;4989104;28;20026;-79
2020/12/17 06:22:55;;;;;;;10.00;6.65;;;3.90;99.90;;;;;;4987342;28;20664;-79
2020/12/17 06:25:23;;;;;;;10.27;6.50;;;3.80;99.90;;;;;;4988121;28;20038;-78
2020/12/17 06:27:50;;;;;;;8.77;6.18;;;4.00;99.90;;;;;;4988990;28;20022;-79
2020/12/17 06:30:19;;;;;;;8.23;6.05;;;4.00;99.90;;;;;;4988613;28;20030;-79
2020/12/17 06:32:44;;;;;;;9.70;6.90;;;4.00;99.90;;;;;;4987003;28;20345;-79
2020/12/17 06:35:22;;;;;;;8.90;6.82;;;3.90;99.90;;;;;;4986770;28;20034;-79
2020/12/17 06:37:51;;;;;;;9.10;6.65;;;4.00;99.90;;;;;;4988946;28;20030;-79
2020/12/17 06:40:28;;;;;;;8.75;6.43;;;4.10;99.90;;;;;;4987463;28;20105;-79
2020/12/17 06:42:54;;;;;;;9.23;6.53;;;4.00;99.90;;;;;;4987338;28;20100;-79
2020/12/17 06:45:39;;;;;;;7.95;5.55;;;4.10;99.90;;;;;;4988071;28;20489;-78
2020/12/17 06:48:32;;;;;;;9.13;6.43;;;4.00;99.90;;;;;;4987507;28;20030;-78
2020/12/17 06:50:59;;;;;;;9.38;6.50;;;4.00;99.90;;;;;;4987315;28;20023;-78
2020/12/17 06:53:41;;;;;;;11.00;7.03;;;3.80;99.90;;;;;;4987130;28;20030;-77
2020/12/17 06:56:15;;;;;;;11.75;7.50;;;3.90;99.90;;;;;;4987615;28;20030;-79
2020/12/17 06:58:41;;;;;;;9.95;6.68;;;3.90;99.90;;;;;;4987107;28;20084;-79
2020/12/17 07:01:25;;;;;;;11.07;6.68;;;3.90;99.90;;;;;;4988204;28;20121;-79
2020/12/17 07:03:51;;;;;;;11.10;6.28;;;3.90;99.90;;;;;;4988154;28;20058;-79
2020/12/17 07:06:25;;;;;;;11.40;7.43;;;3.90;99.90;;;;;;4986134;28;20022;-78
2020/12/17 07:08:58;;;;;;;9.63;5.75;;;4.00;99.90;;;;;;4987272;28;20505;-79
2020/12/17 07:11:41;;;;;;;8.77;5.60;;;4.10;99.90;;;;;;4987149;28;20038;-79
2020/12/17 07:14:09;;;;;;;8.73;5.95;;;4.10;99.90;;;;;;4987609;28;20041;-80
2020/12/17 07:16:37;;;;;;;8.60;5.80;;;4.20;99.90;;;;;;4987975;28;20030;-79
2020/12/17 07:19:35;;;;;;;;;;;4.30;99.90;;;;;;4988730;28;20019;-80
2020/12/17 07:22:04;;;;;;;10.82;6.95;;;4.40;99.90;;;;;;4965247;28;19940;-78
2020/12/17 07:24:33;;;;;;;10.93;6.82;;;4.50;99.90;;;;;;4987599;28;20054;-79
2020/12/17 07:27:17;;;;;;;9.48;6.60;;;4.40;99.90;;;;;;4988192;28;20023;-79
2020/12/17 07:29:50;;;;;;;10.35;6.93;;;4.20;99.90;;;;;;4988109;28;20033;-79
2020/12/17 07:32:29;;;;;;;18.73;11.68;;;4.00;99.90;;;;;;4988417;28;20061;-80
2020/12/17 07:35:15;;;;;;;13.70;8.48;;;4.10;99.90;;;;;;4986397;28;20022;-78
2020/12/17 07:37:57;;;;;;;10.30;6.93;;;4.30;99.90;;;;;;4987866;28;20427;-78
2020/12/17 07:40:36;;;;;;;10.52;6.57;;;4.40;99.90;;;;;;4988430;28;20018;-79
2020/12/17 07:43:24;;;;;;;9.23;6.18;;;4.60;99.90;;;;;;4988408;28;20042;-81
2020/12/17 07:45:53;;;;;;;9.43;6.47;;;4.60;99.90;;;;;;4991271;28;20358;-78
2020/12/17 07:48:46;;;;;;;8.95;6.47;;;4.50;99.90;;;;;;4990504;28;20038;-79
2020/12/17 07:51:14;;;;;;;9.15;6.05;;;4.70;99.90;;;;;;4991179;28;20093;-77
2020/12/17 07:53:48;;;;;;;8.40;6.00;;;4.80;99.90;;;;;;4990016;28;20109;-78
2020/12/17 07:56:15;;;;;;;8.38;5.45;;;4.90;99.90;;;;;;4991211;28;20033;-78
2020/12/17 07:58:41;;;;;;;8.63;5.83;;;4.80;99.90;;;;;;4990359;28;20031;-78
2020/12/17 08:01:08;;;;;;;7.15;5.15;;;4.90;99.90;;;;;;4991078;28;20030;-77
2020/12/17 08:03:41;;;;;;;9.43;5.43;;;5.00;99.90;;;;;;5001356;28;20026;-79
2020/12/17 08:06:08;;;;;;;8.73;5.88;;;5.10;99.90;;;;;;5010939;28;20953;-78
2020/12/17 08:08:34;;;;;;;9.95;5.80;;;4.90;99.90;;;;;;5006806;28;20080;-78
2020/12/17 08:11:08;;;;;;;9.60;5.45;;;5.00;99.90;;;;;;4991708;28;20643;-79
2020/12/17 08:13:34;;;;;;;8.90;6.00;;;5.20;99.90;;;;;;4990177;28;20525;-79
2020/12/17 08:16:01;;;;;;;7.95;5.35;;;5.30;99.90;;;;;;4990958;28;20181;-79
2020/12/17 08:18:28;;;;;;;8.68;5.75;;;5.40;99.90;;;;;;4991347;28;20026;-79
2020/12/17 08:21:11;;;;;;;9.13;5.22;;;5.40;99.90;;;;;;4991390;28;20122;-79
2020/12/17 08:23:39;;;;;;;7.90;5.18;;;5.40;99.90;;;;;;4990018;28;20113;-78
2020/12/17 08:26:07;;;;;;;9.68;5.70;;;5.50;99.90;;;;;;4989327;28;20021;-77
2020/12/17 08:28:35;;;;;;;9.52;6.45;;;5.50;99.90;;;;;;4991513;28;20412;-79
2020/12/17 08:31:11;;;;;;;8.18;5.45;;;5.50;99.90;;;;;;4991586;28;20519;-79
2020/12/17 08:33:41;;;;;;;7.82;5.35;;;5.50;99.90;;;;;;4991479;28;20605;-80
2020/12/17 08:36:09;;;;;;;7.07;5.20;;;5.60;99.90;;;;;;4991200;28;20031;-78
2020/12/17 08:38:35;;;;;;;8.38;5.50;;;5.70;99.90;;;;;;4991156;28;20033;-78
2020/12/17 08:41:02;;;;;;;8.95;5.78;;;5.70;99.90;;;;;;4991352;28;20409;-78
2020/12/17 08:43:33;;;;;;;11.60;6.03;;;5.40;99.90;;;;;;4989517;28;20113;-78
2020/12/17 08:46:00;;;;;;;10.70;6.90;;;5.40;99.90;;;;;;4990378;28;20272;-79
2020/12/17 08:48:28;;;;;;;9.67;6.50;;;5.40;99.90;;;;;;4989880;28;20478;-79
2020/12/17 08:50:55;;;;;;;10.32;6.20;;;5.50;99.90;;;;;;4990958;28;20274;-78
2020/12/17 08:53:27;;;;;;;8.18;5.70;;;5.70;99.90;;;;;;4989453;28;20026;-78
2020/12/17 08:56:18;;;;;;;11.63;6.15;;;5.80;99.90;;;;;;4989257;28;20031;-78
2020/12/17 08:58:50;;;;;;;10.57;6.05;;;5.80;99.90;;;;;;4991125;28;20465;-81
2020/12/17 09:01:34;;;;;;;9.82;6.07;;;5.80;99.90;;;;;;4989293;28;20397;-78
2020/12/17 09:04:06;;;;;;;10.13;6.47;;;5.80;99.90;;;;;;4989431;28;20037;-78
2020/12/17 09:06:32;;;;;;;9.82;6.97;;;5.80;99.90;;;;;;4988756;28;20058;-79
2020/12/17 09:09:24;;;;;;;10.13;6.40;;;5.90;99.90;;;;;;4990078;28;20101;-77
2020/12/17 09:11:51;;;;;;;10.88;7.07;;;5.90;99.90;;;;;;4989615;28;20030;-81
2020/12/17 09:14:20;;;;;;;8.90;5.93;;;6.10;99.90;;;;;;4989480;28;20441;-78
2020/12/17 09:16:48;;;;;;;12.38;6.90;;;6.20;99.90;;;;;;4990436;28;20022;-81
2020/12/17 09:19:14;;;;;;;9.40;6.03;;;6.30;99.90;;;;;;4988784;28;20527;-80
2020/12/17 09:22:00;;;;;;;10.82;6.45;;;6.40;99.90;;;;;;4990003;28;20027;-79
2020/12/17 09:24:30;;;;;;;10.07;6.13;;;6.50;99.90;;;;;;4989950;28;20543;-77
2020/12/17 09:27:13;;;;;;;9.55;6.25;;;6.50;99.90;;;;;;4990165;28;20031;-78
2020/12/17 09:29:39;;;;;;;10.13;6.72;;;6.50;99.90;;;;;;4990385;28;20109;-78
2020/12/17 09:32:18;;;;;;;10.80;7.03;;;6.60;99.90;;;;;;4988620;28;20121;-80
2020/12/17 09:34:44;;;;;;;10.40;6.50;;;6.90;99.90;;;;;;4988944;28;20128;-79
2020/12/17 09:37:13;;;;;;;9.07;6.13;;;7.70;99.90;;;;;;4988549;28;20061;-78
2020/12/17 09:39:44;;;;;;;9.10;6.15;;;8.60;99.90;;;;;;4989284;28;20038;-77
2020/12/17 09:42:16;;;;;;;6.68;4.88;;;9.40;99.90;;;;;;4987988;28;20030;-78
2020/12/17 09:44:42;;;;;;;8.18;5.32;;;9.70;99.90;;;;;;4987042;28;20149;-78
2020/12/17 09:47:08;;;;;;;8.48;5.70;;;9.60;99.90;;;;;;4988227;28;20041;-78
2020/12/17 09:49:36;;;;;;;8.82;6.18;;;8.80;99.90;;;;;;4987796;28;20032;-78
2020/12/17 09:52:09;;;;;;;8.80;6.10;;;8.70;99.90;;;;;;4988877;28;20042;-77
2020/12/17 09:54:43;;;;;;;10.77;6.65;;;8.60;99.90;;;;;;4987069;28;20062;-78
2020/12/17 09:57:14;;;;;;;8.48;5.47;;;9.10;99.90;;;;;;4989012;28;20023;-79
2020/12/17 09:59:41;;;;;;;7.47;5.10;;;10.30;99.90;;;;;;4987309;28;20073;-77
2020/12/17 10:02:15;;;;;;;7.93;5.38;;;11.30;99.90;;;;;;4987409;28;20026;-78
2020/12/17 10:04:41;;;;;;;9.38;5.53;;;12.10;99.90;;;;;;4988245;28;20496;-80
2020/12/17 10:07:10;;;;;;;9.02;5.55;;;12.80;99.90;;;;;;4987529;28;20042;-79
2020/12/17 10:09:36;;;;;;;9.45;5.20;;;13.10;99.90;;;;;;4988714;28;20027;-78
2020/12/17 10:12:02;;;;;;;9.15;5.10;;;12.70;99.90;;;;;;4987653;28;20070;-77
2020/12/17 10:14:28;;;;;;;10.18;5.70;;;12.10;99.90;;;;;;4988126;28;20034;-79
2020/12/17 10:16:59;;;;;;;8.65;5.57;;;11.60;99.90;;;;;;4987344;28;20030;-79
2020/12/17 10:19:26;;;;;;;7.85;5.32;;;11.20;99.90;;;;;;4988782;28;20105;-79
2020/12/17 10:21:52;;;;;;;9.73;6.10;;;10.70;99.90;;;;;;4987337;28;20389;-78
2020/12/17 10:24:18;;;;;;;9.20;5.57;;;10.30;99.90;;;;;;4988660;28;20039;-78
2020/12/17 10:26:43;;;;;;;10.43;6.38;;;9.90;99.90;;;;;;4988422;28;20023;-79
2020/12/17 10:29:09;;;;;;;15.82;6.00;;;9.70;99.90;;;;;;4988629;28;20085;-79
2020/12/17 10:31:35;;;;;;;8.73;5.70;;;;;;;;;;4987166;28;20022;-78
2020/12/17 10:34:01;;;;;;;10.90;6.32;;;9.20;99.90;;;;;;4988068;28;20026;-79
2020/12/17 10:36:27;;;;;;;8.10;5.57;;;9.50;99.90;;;;;;4987878;28;20755;-78
2020/12/17 10:38:53;;;;;;;8.30;5.55;;;10.20;99.90;;;;;;4988647;28;20539;-78
2020/12/17 10:41:26;;;;;;;9.50;6.10;;;10.80;99.90;;;;;;4988554;28;20041;-79
2020/12/17 10:43:55;;;;;;;9.13;5.65;;;10.90;99.90;;;;;;4986816;28;20018;-78
2020/12/17 10:46:21;;;;;;;9.65;5.80;;;10.80;99.90;;;;;;4987609;28;20022;-78
2020/12/17 10:48:47;;;;;;;7.90;5.70;;;10.70;99.90;;;;;;4988435;28;20041;-78
2020/12/17 10:51:16;;;;;;;8.45;5.57;;;11.30;99.90;;;;;;4986425;28;20026;-78
2020/12/17 10:53:42;;;;;;;9.23;6.50;;;12.20;99.90;;;;;;4987151;28;20027;-76
2020/12/17 10:56:09;;;;;;;9.13;5.53;;;13.10;99.90;;;;;;4985818;28;20034;-78
2020/12/17 10:58:35;;;;;;;10.82;5.95;;;13.20;99.90;;;;;;4987020;28;20134;-78
2020/12/17 11:01:01;;;;;;;12.30;5.93;;;12.60;99.90;;;;;;4988263;28;20029;-78
2020/12/17 11:03:27;;;;;;;10.65;6.55;;;12.50;99.90;;;;;;4987905;28;20030;-79
2020/12/17 11:05:53;;;;;;;10.80;6.20;;;11.70;99.90;;;;;;4987288;28;20026;-79
2020/12/17 11:08:19;;;;;;;9.40;5.97;;;11.30;99.90;;;;;;4987357;28;20548;-79
2020/12/17 11:10:45;;;;;;;9.85;5.70;;;10.70;99.90;;;;;;4987638;28;20643;-81
2020/12/17 11:13:10;;;;;;;9.57;5.80;;;10.50;99.90;;;;;;4987168;28;20061;-79
2020/12/17 11:15:36;;;;;;;10.00;5.47;;;10.40;99.90;;;;;;4987970;28;20034;-81
2020/12/17 11:18:02;;;;;;;8.63;5.82;;;10.40;99.90;;;;;;4990934;28;20026;-82
2020/12/17 11:20:28;;;;;;;10.10;6.00;;;10.40;99.90;;;;;;4992599;28;20084;-79
2020/12/17 11:22:53;;;;;;;8.30;6.18;;;10.40;99.90;;;;;;4990466;28;20089;-77
2020/12/17 11:25:19;;;;;;;9.00;6.13;;;10.30;99.90;;;;;;4991129;28;20076;-79
2020/12/17 11:27:45;;;;;;;9.82;6.07;;;10.20;99.90;;;;;;4991882;28;20030;-78
2020/12/17 11:30:10;;;;;;;10.73;6.72;;;10.00;99.90;;;;;;4990530;28;20117;-77
2020/12/17 11:32:36;;;;;;;12.32;6.65;;;9.70;99.90;;;;;;4990395;28;20107;-80
2020/12/17 11:35:06;;;;;;;11.15;6.10;;;9.70;99.90;;;;;;4989521;28;20473;-78
2020/12/17 11:37:32;;;;;;;10.35;7.00;;;9.80;99.90;;;;;;4990494;28;20027;-77
2020/12/17 11:39:58;;;;;;;9.77;5.67;;;9.80;99.90;;;;;;4990435;28;20485;-78
2020/12/17 11:42:24;;;;;;;10.60;6.35;;;9.80;99.90;;;;;;4990259;28;20029;-79
2020/12/17 11:44:49;;;;;;;9.82;6.68;;;9.90;99.90;;;;;;4990788;28;20036;-78
2020/12/17 11:47:15;;;;;;;10.90;5.88;;;9.60;99.90;;;;;;4991936;28;20433;-79
2020/12/17 11:49:41;;;;;;;8.88;5.80;;;9.70;99.90;;;;;;4989865;28;20033;-79
2020/12/17 11:52:07;;;;;;;8.95;5.85;;;9.90;99.90;;;;;;4990311;28;20511;-78
2020/12/17 11:54:32;;;;;;;10.25;5.97;;;10.00;99.90;;;;;;4990169;28;20567;-79
2020/12/17 11:56:58;;;;;;;9.50;5.70;;;10.00;99.90;;;;;;4990293;28;20030;-79
2020/12/17 11:59:24;;;;;;;10.13;5.72;;;10.10;99.90;;;;;;4991426;28;20050;-80
2020/12/17 12:01:50;;;;;;;12.38;5.93;;;10.10;99.90;;;;;;4991897;28;20080;-79
2020/12/17 12:04:16;;;;;;;10.68;6.13;;;10.10;99.90;;;;;;4989842;28;20443;-79
2020/12/17 12:06:41;;;;;;;11.30;6.43;;;10.10;99.90;;;;;;4990797;28;20029;-79
2020/12/17 12:09:07;;;;;;;11.75;6.68;;;10.20;99.90;;;;;;4991603;28;20030;-78
2020/12/17 12:11:33;;;;;;;12.98;8.20;;;10.20;99.90;;;;;;4991131;28;20054;-78
2020/12/17 12:13:59;;;;;;;11.32;6.90;;;10.20;99.90;;;;;;4989609;28;20100;-78
2020/12/17 12:16:25;;;;;;;11.32;6.63;;;10.20;99.90;;;;;;4989710;28;20065;-78
2020/12/17 12:18:50;;;;;;;9.35;6.03;;;10.20;99.90;;;;;;4990660;28;20034;-79
2020/12/17 12:21:17;;;;;;;12.07;6.68;;;10.20;99.90;;;;;;4989878;28;20019;-79
2020/12/17 12:23:44;;;;;;;8.90;6.28;;;10.10;99.90;;;;;;4990873;28;20045;-78
2020/12/17 12:26:11;;;;;;;9.47;6.07;;;10.10;99.90;;;;;;4988572;28;20041;-79
2020/12/17 12:28:39;;;;;;;8.47;5.50;;;10.10;99.90;;;;;;4989110;28;20265;-78
2020/12/17 12:31:06;;;;;;;9.13;6.07;;;10.10;99.90;;;;;;4989040;28;20092;-78
2020/12/17 12:33:32;;;;;;;205.10;101.15;;;10.00;99.90;;;;;;4990352;28;20026;-78
2020/12/17 12:35:58;;;;;;;14.10;8.95;;;9.90;99.90;;;;;;4989397;28;20101;-78
2020/12/17 12:38:23;;;;;;;10.05;6.93;;;9.70;99.90;;;;;;4990621;28;20081;-78
2020/12/17 12:40:49;;;;;;;11.75;8.23;;;9.50;99.90;;;;;;4989348;28;20023;-78
2020/12/17 12:43:15;;;;;;;10.68;7.40;;;9.50;99.90;;;;;;4989719;28;20641;-79
2020/12/17 12:45:40;;;;;;;14.13;8.27;;;9.40;99.90;;;;;;4990491;28;20319;-78
2020/12/17 12:48:06;;;;;;;33.58;22.17;;;9.20;99.90;;;;;;4988835;28;20053;-79
2020/12/17 12:50:32;;;;;;;20.88;13.68;;;9.20;99.90;;;;;;4989141;28;20436;-78
2020/12/17 12:52:59;;;;;;;12.68;8.50;;;9.10;99.90;;;;;;4990374;28;20093;-79
2020/12/17 12:55:25;;;;;;;;;;;9.10;99.90;;;;;;4988837;28;20378;-79
2020/12/17 12:57:52;;;;;;;16.85;8.65;;;9.10;99.90;;;;;;4989171;28;20008;-79
2020/12/17 13:00:18;;;;;;;11.30;7.63;;;9.20;99.90;;;;;;4989065;28;20023;-78
2020/12/17 13:02:44;;;;;;;13.45;6.85;;;9.20;99.90;;;;;;4989008;28;20818;-79
2020/12/17 13:05:10;;;;;;;16.20;10.20;;;9.30;99.90;;;;;;4988282;28;20046;-79
2020/12/17 13:07:35;;;;;;;10.13;6.40;;;9.20;99.90;;;;;;4988722;28;20029;-79
2020/12/17 13:10:01;;;;;;;11.25;6.95;;;9.30;99.90;;;;;;4990254;28;20437;-78
2020/12/17 13:12:29;;;;;;;11.40;7.15;;;9.30;99.90;;;;;;4990000;28;20057;-79
2020/12/17 13:14:55;;;;;;;12.30;7.72;;;9.40;99.90;;;;;;4989355;28;20101;-79
2020/12/17 13:17:21;;;;;;;38.38;24.23;;;9.50;99.90;;;;;;4989741;28;20110;-78
2020/12/17 13:19:46;;;;;;;17.42;9.77;;;9.10;99.90;;;;;;4989660;28;20849;-79
2020/12/17 13:22:13;;;;;;;17.25;12.27;;;;;;;;;;4989973;28;20033;-80
2020/12/17 13:24:38;;;;;;;16.90;10.90;;;8.80;99.90;;;;;;4989116;28;20138;-78
2020/12/17 13:27:04;;;;;;;18.60;10.77;;;9.20;99.90;;;;;;4988362;28;20022;-78